sensor_id;sensor_type;location;lat;lon;timestamp;pressure;altitude;pressure_sealevel;temperature;humidity
63088;BME280;49173;43.164;27.786;2023-04-01T00:01:11;99728.16;;;8.64;83.82
63088;BME280;49173;43.164;27.786;2023-04-01T00:03:39;99720.97;;;8.64;84.14
63088;BME280;49173;43.164;27.786;2023-04-01T00:06:05;99726.53;;;8.61;84.02
63088;BME280;49173;43.164;27.786;2023-04-01T00:08:31;99722.19;;;8.59;84.27
63088;BME280;49173;43.164;27.786;2023-04-01T00:10:57;99715.97;;;8.58;84.25
63088;BME280;49173;43.164;27.786;2023-04-01T00:13:24;99715.31;;;8.55;84.10
63088;BME280;49173;43.164;27.786;2023-04-01T00:15:52;99714.34;;;8.56;84.17
63088;BME280;49173;43.164;27.786;2023-04-01T00:18:18;99713.50;;;8.55;84.60
63088;BME280;49173;43.164;27.786;2023-04-01T00:20:48;99715.22;;;8.56;84.45
63088;BME280;49173;43.164;27.786;2023-04-01T00:23:15;99714.34;;;8.56;84.31
63088;BME280;49173;43.164;27.786;2023-04-01T00:25:41;99712.63;;;8.55;83.98
63088;BME280;49173;43.164;27.786;2023-04-01T00:28:07;99714.44;;;8.54;84.61
63088;BME280;49173;43.164;27.786;2023-04-01T00:30:35;99707.69;;;8.63;84.73
63088;BME280;49173;43.164;27.786;2023-04-01T00:33:02;99708.13;;;8.71;84.43
63088;BME280;49173;43.164;27.786;2023-04-01T00:35:28;99702.88;;;8.69;83.80
63088;BME280;49173;43.164;27.786;2023-04-01T00:37:54;99702.09;;;8.67;83.50
63088;BME280;49173;43.164;27.786;2023-04-01T00:40:29;99691.75;;;8.61;83.48
63088;BME280;49173;43.164;27.786;2023-04-01T00:42:56;99690.28;;;8.56;84.55
63088;BME280;49173;43.164;27.786;2023-04-01T00:45:32;99690.44;;;8.52;84.91
63088;BME280;49173;43.164;27.786;2023-04-01T00:48:01;99674.69;;;8.48;84.81
63088;BME280;49173;43.164;27.786;2023-04-01T00:50:28;99683.91;;;8.42;84.84
63088;BME280;49173;43.164;27.786;2023-04-01T00:52:56;99683.13;;;8.40;85.08
63088;BME280;49173;43.164;27.786;2023-04-01T00:55:23;99681.41;;;8.39;85.29
63088;BME280;49173;43.164;27.786;2023-04-01T00:57:50;99677.94;;;8.37;85.37
63088;BME280;49173;43.164;27.786;2023-04-01T01:00:18;99676.28;;;8.35;85.24
63088;BME280;49173;43.164;27.786;2023-04-01T01:02:46;99684.41;;;8.33;85.49
63088;BME280;49173;43.164;27.786;2023-04-01T01:05:14;99676.38;;;8.33;85.88
63088;BME280;49173;43.164;27.786;2023-04-01T01:08:07;99680.06;;;8.31;85.79
63088;BME280;49173;43.164;27.786;2023-04-01T01:10:39;99675.59;;;8.31;85.83
63088;BME280;49173;43.164;27.786;2023-04-01T01:27:31;99669.22;;;8.34;86.38
63088;BME280;49173;43.164;27.786;2023-04-01T01:32:31;99666.25;;;8.40;85.98
63088;BME280;49173;43.164;27.786;2023-04-01T01:38:02;99655.66;;;8.52;86.29
63088;BME280;49173;43.164;27.786;2023-04-01T01:40:31;99666.22;;;8.56;86.19
63088;BME280;49173;43.164;27.786;2023-04-01T01:43:03;99664.13;;;8.61;86.00
63088;BME280;49173;43.164;27.786;2023-04-01T01:45:33;99669.56;;;8.59;85.69
63088;BME280;49173;43.164;27.786;2023-04-01T01:48:02;99653.50;;;8.59;85.82
63088;BME280;49173;43.164;27.786;2023-04-01T01:50:29;99667.84;;;8.58;85.28
63088;BME280;49173;43.164;27.786;2023-04-01T01:53:10;99661.63;;;8.58;85.20
63088;BME280;49173;43.164;27.786;2023-04-01T01:55:39;99671.56;;;8.56;85.27
63088;BME280;49173;43.164;27.786;2023-04-01T01:58:27;99667.31;;;8.51;85.20
63088;BME280;49173;43.164;27.786;2023-04-01T02:01:01;99660.34;;;8.49;85.15
63088;BME280;49173;43.164;27.786;2023-04-01T02:03:31;99665.88;;;8.46;85.65
63088;BME280;49173;43.164;27.786;2023-04-01T02:06:00;99659.84;;;8.42;85.98
63088;BME280;49173;43.164;27.786;2023-04-01T02:08:47;99651.06;;;8.40;85.91
63088;BME280;49173;43.164;27.786;2023-04-01T02:11:17;99660.94;;;8.38;85.52
63088;BME280;49173;43.164;27.786;2023-04-01T02:13:56;99647.78;;;8.35;85.76
63088;BME280;49173;43.164;27.786;2023-04-01T02:16:34;99637.22;;;8.32;86.04
63088;BME280;49173;43.164;27.786;2023-04-01T02:19:03;99638.16;;;8.31;86.29
63088;BME280;49173;43.164;27.786;2023-04-01T02:21:33;99633.94;;;8.27;86.09
63088;BME280;49173;43.164;27.786;2023-04-01T02:24:04;99632.41;;;8.23;86.95
63088;BME280;49173;43.164;27.786;2023-04-01T02:26:31;99631.72;;;8.19;87.75
63088;BME280;49173;43.164;27.786;2023-04-01T02:28:57;99625.66;;;8.16;88.50
63088;BME280;49173;43.164;27.786;2023-04-01T02:31:25;99634.56;;;8.16;88.71
63088;BME280;49173;43.164;27.786;2023-04-01T02:33:54;99628.34;;;8.16;89.42
63088;BME280;49173;43.164;27.786;2023-04-01T02:36:20;99623.72;;;8.19;89.56
63088;BME280;49173;43.164;27.786;2023-04-01T02:38:46;99625.31;;;8.22;89.20
63088;BME280;49173;43.164;27.786;2023-04-01T02:41:14;99613.69;;;8.23;89.64
63088;BME280;49173;43.164;27.786;2023-04-01T02:43:39;99615.41;;;8.24;89.67
63088;BME280;49173;43.164;27.786;2023-04-01T02:46:05;99611.00;;;8.23;89.31
63088;BME280;49173;43.164;27.786;2023-04-01T02:48:31;99605.56;;;8.24;90.05
63088;BME280;49173;43.164;27.786;2023-04-01T02:50:57;99605.41;;;8.27;90.20
63088;BME280;49173;43.164;27.786;2023-04-01T02:53:23;99605.06;;;8.34;90.19
63088;BME280;49173;43.164;27.786;2023-04-01T02:55:49;99604.75;;;8.40;89.83
63088;BME280;49173;43.164;27.786;2023-04-01T02:58:17;99596.16;;;8.49;89.32
63088;BME280;49173;43.164;27.786;2023-04-01T03:00:43;99599.59;;;8.51;88.47
63088;BME280;49173;43.164;27.786;2023-04-01T03:03:09;99597.78;;;8.51;87.99
63088;BME280;49173;43.164;27.786;2023-04-01T03:05:35;99592.63;;;8.48;87.22
63088;BME280;49173;43.164;27.786;2023-04-01T03:08:02;99588.41;;;8.44;87.10
63088;BME280;49173;43.164;27.786;2023-04-01T03:10:28;99592.13;;;8.42;87.71
63088;BME280;49173;43.164;27.786;2023-04-01T03:12:54;99584.22;;;8.40;87.72
63088;BME280;49173;43.164;27.786;2023-04-01T03:15:20;99580.69;;;8.40;87.09
63088;BME280;49173;43.164;27.786;2023-04-01T03:17:46;99571.97;;;8.36;86.90
63088;BME280;49173;43.164;27.786;2023-04-01T03:20:13;99569.44;;;8.33;87.25
63088;BME280;49173;43.164;27.786;2023-04-01T03:22:40;99571.31;;;8.31;87.45
63088;BME280;49173;43.164;27.786;2023-04-01T03:25:06;99561.69;;;8.29;87.75
63088;BME280;49173;43.164;27.786;2023-04-01T03:27:33;99563.31;;;8.31;88.25
63088;BME280;49173;43.164;27.786;2023-04-01T03:30:02;99562.53;;;8.29;87.49
63088;BME280;49173;43.164;27.786;2023-04-01T03:32:27;99560.81;;;8.28;87.55
63088;BME280;49173;43.164;27.786;2023-04-01T03:34:53;99556.53;;;8.25;87.52
63088;BME280;49173;43.164;27.786;2023-04-01T03:37:19;99564.59;;;8.24;87.58
63088;BME280;49173;43.164;27.786;2023-04-01T03:39:45;99560.22;;;8.23;88.51
63088;BME280;49173;43.164;27.786;2023-04-01T03:42:12;99562.91;;;8.23;89.06
63088;BME280;49173;43.164;27.786;2023-04-01T03:44:37;99563.75;;;8.23;89.31
63088;BME280;49173;43.164;27.786;2023-04-01T03:47:03;99565.56;;;8.23;89.31
63088;BME280;49173;43.164;27.786;2023-04-01T03:49:29;99564.81;;;8.21;89.71
63088;BME280;49173;43.164;27.786;2023-04-01T03:51:55;99557.75;;;8.20;90.12
63088;BME280;49173;43.164;27.786;2023-04-01T03:54:20;99563.19;;;8.18;90.36
63088;BME280;49173;43.164;27.786;2023-04-01T03:56:47;99563.09;;;8.20;90.71
63088;BME280;49173;43.164;27.786;2023-04-01T03:59:13;99569.28;;;8.20;90.82
63088;BME280;49173;43.164;27.786;2023-04-01T04:01:40;99562.91;;;8.23;91.08
63088;BME280;49173;43.164;27.786;2023-04-01T04:04:06;99563.69;;;8.25;91.15
63088;BME280;49173;43.164;27.786;2023-04-01T04:06:33;99564.44;;;8.27;90.84
63088;BME280;49173;43.164;27.786;2023-04-01T04:08:59;99569.59;;;8.30;90.52
63088;BME280;49173;43.164;27.786;2023-04-01T04:11:24;99574.00;;;8.31;90.09
63088;BME280;49173;43.164;27.786;2023-04-01T04:13:51;99577.47;;;8.33;90.17
63088;BME280;49173;43.164;27.786;2023-04-01T04:16:18;99574.69;;;8.35;90.38
63088;BME280;49173;43.164;27.786;2023-04-01T04:18:43;99570.84;;;8.40;90.23
63088;BME280;49173;43.164;27.786;2023-04-01T04:21:14;99569.34;;;8.50;89.57
63088;BME280;49173;43.164;27.786;2023-04-01T04:23:40;99564.56;;;8.56;89.41
63088;BME280;49173;43.164;27.786;2023-04-01T04:26:08;99569.28;;;8.66;89.92
63088;BME280;49173;43.164;27.786;2023-04-01T04:28:34;99565.00;;;8.78;90.25
63088;BME280;49173;43.164;27.786;2023-04-01T04:31:00;99550.53;;;8.96;90.67
63088;BME280;49173;43.164;27.786;2023-04-01T04:33:26;99554.56;;;9.18;90.55
63088;BME280;49173;43.164;27.786;2023-04-01T04:35:55;99538.75;;;9.27;90.12
63088;BME280;49173;43.164;27.786;2023-04-01T04:38:22;99542.38;;;9.55;90.83
63088;BME280;49173;43.164;27.786;2023-04-01T04:40:54;99547.88;;;9.80;90.01
63088;BME280;49173;43.164;27.786;2023-04-01T04:43:20;99549.84;;;10.18;91.21
63088;BME280;49173;43.164;27.786;2023-04-01T04:45:46;99548.75;;;10.75;88.30
63088;BME280;49173;43.164;27.786;2023-04-01T04:48:14;99546.91;;;11.26;86.02
63088;BME280;49173;43.164;27.786;2023-04-01T04:50:48;99544.75;;;11.57;84.97
63088;BME280;49173;43.164;27.786;2023-04-01T04:53:16;99540.66;;;11.64;83.76
63088;BME280;49173;43.164;27.786;2023-04-01T04:55:43;99537.50;;;11.82;82.59
63088;BME280;49173;43.164;27.786;2023-04-01T04:58:10;99547.25;;;11.83;80.83
63088;BME280;49173;43.164;27.786;2023-04-01T05:00:35;99533.00;;;11.70;79.87
63088;BME280;49173;43.164;27.786;2023-04-01T05:03:01;99533.47;;;11.51;79.69
63088;BME280;49173;43.164;27.786;2023-04-01T05:05:27;99540.38;;;11.30;79.80
63088;BME280;49173;43.164;27.786;2023-04-01T05:07:52;99531.16;;;11.09;79.72
63088;BME280;49173;43.164;27.786;2023-04-01T05:10:18;99536.09;;;10.89;80.06
63088;BME280;49173;43.164;27.786;2023-04-01T05:12:46;99536.41;;;10.72;80.84
63088;BME280;49173;43.164;27.786;2023-04-01T05:15:12;99533.88;;;10.56;81.65
63088;BME280;49173;43.164;27.786;2023-04-01T05:17:37;99531.28;;;10.42;82.32
63088;BME280;49173;43.164;27.786;2023-04-01T05:20:04;99527.69;;;10.29;83.73
63088;BME280;49173;43.164;27.786;2023-04-01T05:22:30;99525.84;;;10.16;84.17
63088;BME280;49173;43.164;27.786;2023-04-01T05:24:55;99530.94;;;10.07;84.30
63088;BME280;49173;43.164;27.786;2023-04-01T05:27:21;99524.47;;;9.97;84.82
63088;BME280;49173;43.164;27.786;2023-04-01T05:29:47;99524.00;;;9.90;85.41
63088;BME280;49173;43.164;27.786;2023-04-01T05:32:13;99522.28;;;9.89;86.38
63088;BME280;49173;43.164;27.786;2023-04-01T05:34:39;99522.06;;;9.92;87.99
63088;BME280;49173;43.164;27.786;2023-04-01T05:37:04;99513.28;;;9.90;88.10
63088;BME280;49173;43.164;27.786;2023-04-01T05:39:30;99520.47;;;9.89;87.97
63088;BME280;49173;43.164;27.786;2023-04-01T05:41:56;99508.69;;;9.92;88.57
63088;BME280;49173;43.164;27.786;2023-04-01T05:44:22;99511.91;;;9.97;89.08
63088;BME280;49173;43.164;27.786;2023-04-01T05:46:48;99502.41;;;10.06;89.69
63088;BME280;49173;43.164;27.786;2023-04-01T05:49:14;99500.50;;;10.21;90.23
63088;BME280;49173;43.164;27.786;2023-04-01T05:51:39;99499.31;;;10.39;90.44
63088;BME280;49173;43.164;27.786;2023-04-01T05:54:05;99497.00;;;10.60;89.44
63088;BME280;49173;43.164;27.786;2023-04-01T05:56:31;99488.19;;;10.83;89.28
63088;BME280;49173;43.164;27.786;2023-04-01T05:58:57;99494.41;;;11.09;89.82
63088;BME280;49173;43.164;27.786;2023-04-01T06:01:22;99487.50;;;11.31;89.63
63088;BME280;49173;43.164;27.786;2023-04-01T06:03:48;99485.53;;;11.45;89.09
63088;BME280;49173;43.164;27.786;2023-04-01T06:06:20;99477.75;;;11.53;88.60
63088;BME280;49173;43.164;27.786;2023-04-01T06:08:48;99484.53;;;11.59;88.27
63088;BME280;49173;43.164;27.786;2023-04-01T06:16:39;99470.84;;;11.62;88.45
63088;BME280;49173;43.164;27.786;2023-04-01T06:19:36;99470.22;;;11.59;87.83
63088;BME280;49173;43.164;27.786;2023-04-01T06:38:32;99449.66;;;11.34;90.06
63088;BME280;49173;43.164;27.786;2023-04-01T06:41:39;99457.63;;;11.35;90.87
63088;BME280;49173;43.164;27.786;2023-04-01T06:44:31;99457.16;;;11.41;91.71
63088;BME280;49173;43.164;27.786;2023-04-01T06:49:39;99454.72;;;11.62;92.57
63088;BME280;49173;43.164;27.786;2023-04-01T06:55:02;99462.41;;;11.79;91.68
63088;BME280;49173;43.164;27.786;2023-04-01T06:57:40;99462.22;;;11.82;91.38
63088;BME280;49173;43.164;27.786;2023-04-01T07:03:26;99468.84;;;11.90;90.99
63088;BME280;49173;43.164;27.786;2023-04-01T07:05:59;99460.56;;;11.93;90.73
63088;BME280;49173;43.164;27.786;2023-04-01T07:08:28;99461.56;;;12.03;90.79
63088;BME280;49173;43.164;27.786;2023-04-01T07:13:27;99451.88;;;12.24;91.48
63088;BME280;49173;43.164;27.786;2023-04-01T07:16:17;99456.31;;;12.36;91.23
63088;BME280;49173;43.164;27.786;2023-04-01T07:19:06;99442.03;;;12.47;90.48
63088;BME280;49173;43.164;27.786;2023-04-01T07:21:47;99442.91;;;12.59;90.95
63088;BME280;49173;43.164;27.786;2023-04-01T07:24:24;99445.75;;;12.69;89.66
63088;BME280;49173;43.164;27.786;2023-04-01T07:26:55;99448.81;;;12.75;89.07
63088;BME280;49173;43.164;27.786;2023-04-01T07:29:24;99448.09;;;12.84;90.63
63088;BME280;49173;43.164;27.786;2023-04-01T07:32:47;99446.63;;;12.91;91.19
63088;BME280;49173;43.164;27.786;2023-04-01T07:37:46;99435.25;;;12.99;89.64
63088;BME280;49173;43.164;27.786;2023-04-01T07:43:28;99432.78;;;12.96;86.55
63088;BME280;49173;43.164;27.786;2023-04-01T07:49:42;99428.25;;;12.97;85.44
63088;BME280;49173;43.164;27.786;2023-04-01T07:51:48;99415.66;;;12.97;85.13
63088;BME280;49173;43.164;27.786;2023-04-01T07:57:11;99409.28;;;13.09;84.13
63088;BME280;49173;43.164;27.786;2023-04-01T08:05:29;99411.59;;;13.48;82.79
63088;BME280;49173;43.164;27.786;2023-04-01T08:19:52;99397.16;;;14.01;78.65
63088;BME280;49173;43.164;27.786;2023-04-01T08:23:17;99382.91;;;14.11;79.44
63088;BME280;49173;43.164;27.786;2023-04-01T08:25:27;99371.78;;;14.25;78.51
63088;BME280;49173;43.164;27.786;2023-04-01T08:28:24;99371.81;;;14.46;77.99
63088;BME280;49173;43.164;27.786;2023-04-01T08:31:10;99371.50;;;14.70;79.04
63088;BME280;49173;43.164;27.786;2023-04-01T08:33:41;99370.00;;;14.87;79.08
63088;BME280;49173;43.164;27.786;2023-04-01T08:36:19;99370.09;;;15.06;79.91
63088;BME280;49173;43.164;27.786;2023-04-01T08:39:06;99366.19;;;15.29;79.09
63088;BME280;49173;43.164;27.786;2023-04-01T09:11:28;99337.81;;;16.96;64.68
63088;BME280;49173;43.164;27.786;2023-04-01T09:17:25;99326.72;;;16.90;64.82
63088;BME280;49173;43.164;27.786;2023-04-01T09:22:59;99311.56;;;16.97;64.81
63088;BME280;49173;43.164;27.786;2023-04-01T09:25:49;99322.50;;;17.05;65.34
63088;BME280;49173;43.164;27.786;2023-04-01T09:28:18;99312.38;;;17.07;63.39
63088;BME280;49173;43.164;27.786;2023-04-01T09:39:18;99310.03;;;17.12;63.46
63088;BME280;49173;43.164;27.786;2023-04-01T09:42:21;99301.22;;;17.10;61.98
63088;BME280;49173;43.164;27.786;2023-04-01T09:44:58;99289.97;;;17.05;62.79
63088;BME280;49173;43.164;27.786;2023-04-01T09:53:07;99276.38;;;17.15;60.87
63088;BME280;49173;43.164;27.786;2023-04-01T09:56:15;99256.91;;;17.19;62.01
63088;BME280;49173;43.164;27.786;2023-04-01T10:25:18;99233.53;;;17.36;64.28
63088;BME280;49173;43.164;27.786;2023-04-01T10:28:30;99221.91;;;17.44;63.73
63088;BME280;49173;43.164;27.786;2023-04-01T10:36:59;99210.13;;;17.71;64.28
63088;BME280;49173;43.164;27.786;2023-04-01T10:42:43;99208.69;;;17.84;63.16
63088;BME280;49173;43.164;27.786;2023-04-01T10:45:41;99199.91;;;17.91;62.75
63088;BME280;49173;43.164;27.786;2023-04-01T11:26:00;99147.00;;;18.71;59.05
63088;BME280;49173;43.164;27.786;2023-04-01T11:51:10;99110.50;;;19.31;58.11
63088;BME280;49173;43.164;27.786;2023-04-01T11:54:06;99108.13;;;19.36;56.96
63088;BME280;49173;43.164;27.786;2023-04-01T11:59:44;99101.34;;;19.40;57.24
63088;BME280;49173;43.164;27.786;2023-04-01T12:08:08;99093.47;;;19.45;57.47
63088;BME280;49173;43.164;27.786;2023-04-01T12:10:55;99097.22;;;19.44;57.21
63088;BME280;49173;43.164;27.786;2023-04-01T12:19:23;99079.38;;;19.41;57.37
63088;BME280;49173;43.164;27.786;2023-04-01T12:22:07;99076.50;;;19.43;57.27
63088;BME280;49173;43.164;27.786;2023-04-01T12:27:50;99083.13;;;19.40;56.67
63088;BME280;49173;43.164;27.786;2023-04-01T12:30:56;99087.75;;;19.32;57.16
63088;BME280;49173;43.164;27.786;2023-04-01T12:44:54;99081.97;;;19.10;58.38
63088;BME280;49173;43.164;27.786;2023-04-01T12:56:03;99076.19;;;18.89;57.73
63088;BME280;49173;43.164;27.786;2023-04-01T12:59:14;99064.44;;;18.80;57.48
63088;BME280;49173;43.164;27.786;2023-04-01T13:19:45;99048.41;;;18.53;58.31
63088;BME280;49173;43.164;27.786;2023-04-01T13:41:30;99018.41;;;18.87;60.01
63088;BME280;49173;43.164;27.786;2023-04-01T13:44:35;99014.16;;;18.92;59.79
63088;BME280;49173;43.164;27.786;2023-04-01T14:04:14;99002.16;;;19.42;58.85
63088;BME280;49173;43.164;27.786;2023-04-01T14:10:07;99003.19;;;19.41;59.01
63088;BME280;49173;43.164;27.786;2023-04-01T14:12:57;98994.22;;;19.33;58.76
63088;BME280;49173;43.164;27.786;2023-04-01T14:24:43;98996.31;;;18.98;59.86
63088;BME280;49173;43.164;27.786;2023-04-01T14:45:12;98982.41;;;18.69;59.83
63088;BME280;49173;43.164;27.786;2023-04-01T14:50:45;98959.44;;;18.63;60.06
63088;BME280;49173;43.164;27.786;2023-04-01T14:53:37;98950.25;;;18.56;60.15
63088;BME280;49173;43.164;27.786;2023-04-01T14:56:10;98948.41;;;18.56;60.41
63088;BME280;49173;43.164;27.786;2023-04-01T14:58:45;98939.41;;;18.48;60.34
63088;BME280;49173;43.164;27.786;2023-04-01T15:04:26;98933.63;;;18.43;61.61
63088;BME280;49173;43.164;27.786;2023-04-01T15:07:26;98927.69;;;18.47;61.46
63088;BME280;49173;43.164;27.786;2023-04-01T15:13:13;98935.16;;;18.61;61.65
63088;BME280;49173;43.164;27.786;2023-04-01T15:22:32;98933.13;;;18.72;60.00
63088;BME280;49173;43.164;27.786;2023-04-01T15:25:35;98929.72;;;18.78;60.31
63088;BME280;49173;43.164;27.786;2023-04-01T15:31:45;98920.19;;;18.90;60.11
63088;BME280;49173;43.164;27.786;2023-04-01T15:43:07;98898.16;;;18.69;58.75
63088;BME280;49173;43.164;27.786;2023-04-01T15:46:08;98899.66;;;18.63;58.54
63088;BME280;49173;43.164;27.786;2023-04-01T15:49:01;98893.38;;;18.54;58.46
63088;BME280;49173;43.164;27.786;2023-04-01T15:57:04;98914.59;;;18.26;58.72
63088;BME280;49173;43.164;27.786;2023-04-01T15:59:47;98927.47;;;18.16;58.68
63088;BME280;49173;43.164;27.786;2023-04-01T16:02:29;98929.34;;;18.07;58.96
63088;BME280;49173;43.164;27.786;2023-04-01T16:11:42;98953.75;;;17.91;60.49
63088;BME280;49173;43.164;27.786;2023-04-01T16:20:51;98965.88;;;17.71;61.67
63088;BME280;49173;43.164;27.786;2023-04-01T16:23:51;98966.69;;;17.63;62.18
63088;BME280;49173;43.164;27.786;2023-04-01T16:26:29;98966.31;;;17.58;62.36
63088;BME280;49173;43.164;27.786;2023-04-01T16:35:24;98976.69;;;17.28;63.69
63088;BME280;49173;43.164;27.786;2023-04-01T16:37:54;98975.00;;;17.27;63.94
63088;BME280;49173;43.164;27.786;2023-04-01T16:40:42;98970.03;;;17.23;64.03
63088;BME280;49173;43.164;27.786;2023-04-01T16:51:53;98965.13;;;17.26;63.71
63088;BME280;49173;43.164;27.786;2023-04-01T16:57:35;98975.00;;;17.27;63.20
63088;BME280;49173;43.164;27.786;2023-04-01T17:03:51;98966.31;;;17.24;63.09
63088;BME280;49173;43.164;27.786;2023-04-01T17:14:47;98961.00;;;17.14;63.82
63088;BME280;49173;43.164;27.786;2023-04-01T17:28:52;98953.13;;;17.03;63.41
63088;BME280;49173;43.164;27.786;2023-04-01T17:31:51;98954.16;;;17.02;63.77
63088;BME280;49173;43.164;27.786;2023-04-01T17:46:19;98944.31;;;16.75;66.47
63088;BME280;49173;43.164;27.786;2023-04-01T17:51:45;98951.50;;;16.48;68.73
63088;BME280;49173;43.164;27.786;2023-04-01T17:57:39;98940.09;;;16.37;69.85
63088;BME280;49173;43.164;27.786;2023-04-01T18:05:52;98936.00;;;16.15;70.72
63088;BME280;49173;43.164;27.786;2023-04-01T18:08:35;98933.91;;;16.09;71.34
63088;BME280;49173;43.164;27.786;2023-04-01T18:20:41;98965.63;;;16.16;73.42
63088;BME280;49173;43.164;27.786;2023-04-01T18:25:52;98967.88;;;16.21;72.99
63088;BME280;49173;43.164;27.786;2023-04-01T18:28:24;98973.97;;;16.23;71.92
63088;BME280;49173;43.164;27.786;2023-04-01T18:36:53;98972.66;;;16.09;70.57
63088;BME280;49173;43.164;27.786;2023-04-01T18:39:40;98982.56;;;16.01;70.04
63088;BME280;49173;43.164;27.786;2023-04-01T18:45:36;98992.63;;;15.81;69.23
63088;BME280;49173;43.164;27.786;2023-04-01T18:51:34;99022.03;;;15.66;69.03
63088;BME280;49173;43.164;27.786;2023-04-01T18:54:27;99036.97;;;15.60;68.89
63088;BME280;49173;43.164;27.786;2023-04-01T18:57:13;99031.75;;;15.49;68.76
63088;BME280;49173;43.164;27.786;2023-04-01T19:00:03;99027.13;;;15.32;68.99
63088;BME280;49173;43.164;27.786;2023-04-01T19:02:50;99033.41;;;15.23;70.03
63088;BME280;49173;43.164;27.786;2023-04-01T19:05:30;99046.50;;;15.18;70.35
63088;BME280;49173;43.164;27.786;2023-04-01T19:08:20;99042.25;;;15.05;70.74
63088;BME280;49173;43.164;27.786;2023-04-01T19:11:06;99041.84;;;15.00;71.12
63088;BME280;49173;43.164;27.786;2023-04-01T19:14:00;99035.59;;;14.90;71.95
63088;BME280;49173;43.164;27.786;2023-04-01T19:25:33;99056.81;;;14.75;72.76
63088;BME280;49173;43.164;27.786;2023-04-01T19:28:07;99062.63;;;14.71;73.44
63088;BME280;49173;43.164;27.786;2023-04-01T19:30:50;99064.88;;;14.66;74.67
63088;BME280;49173;43.164;27.786;2023-04-01T19:36:30;99075.56;;;14.57;75.94
63088;BME280;49173;43.164;27.786;2023-04-01T19:41:46;99087.66;;;14.53;76.51
63088;BME280;49173;43.164;27.786;2023-04-01T19:44:50;99091.28;;;14.43;76.49
63088;BME280;49173;43.164;27.786;2023-04-01T19:47:46;99086.72;;;14.43;75.46
63088;BME280;49173;43.164;27.786;2023-04-01T19:50:31;99098.53;;;14.42;75.13
63088;BME280;49173;43.164;27.786;2023-04-01T19:55:53;99102.78;;;14.35;75.36
63088;BME280;49173;43.164;27.786;2023-04-01T19:58:33;99117.56;;;14.31;75.02
63088;BME280;49173;43.164;27.786;2023-04-01T20:01:04;99116.81;;;14.29;75.19
63088;BME280;49173;43.164;27.786;2023-04-01T20:03:48;99123.94;;;14.30;74.82
63088;BME280;49173;43.164;27.786;2023-04-01T20:09:46;99122.75;;;14.23;74.54
63088;BME280;49173;43.164;27.786;2023-04-01T20:14:57;99132.69;;;14.13;74.62
63088;BME280;49173;43.164;27.786;2023-04-01T20:25:19;99127.66;;;13.98;75.19
63088;BME280;49173;43.164;27.786;2023-04-01T20:28:05;99133.59;;;13.92;75.47
63088;BME280;49173;43.164;27.786;2023-04-01T20:30:59;99130.34;;;13.89;75.67
63088;BME280;49173;43.164;27.786;2023-04-01T20:33:54;99124.81;;;13.90;75.61
63088;BME280;49173;43.164;27.786;2023-04-01T20:37:02;99127.50;;;13.90;75.62
63088;BME280;49173;43.164;27.786;2023-04-01T20:42:24;99115.56;;;13.83;76.30
63088;BME280;49173;43.164;27.786;2023-04-01T20:54:05;99133.94;;;13.68;77.02
63088;BME280;49173;43.164;27.786;2023-04-01T20:59:57;99141.44;;;13.65;77.51
63088;BME280;49173;43.164;27.786;2023-04-01T21:08:39;99145.19;;;13.53;77.96
63088;BME280;49173;43.164;27.786;2023-04-01T21:14:33;99175.09;;;13.50;78.32
63088;BME280;49173;43.164;27.786;2023-04-01T21:20:46;99171.63;;;13.38;77.90
63088;BME280;49173;43.164;27.786;2023-04-01T21:25:54;99181.22;;;13.31;78.40
63088;BME280;49173;43.164;27.786;2023-04-01T21:28:50;99173.41;;;13.28;78.46
63088;BME280;49173;43.164;27.786;2023-04-01T21:34:31;99184.19;;;13.28;78.72
63088;BME280;49173;43.164;27.786;2023-04-01T21:46:02;99179.22;;;13.12;79.26
63088;BME280;49173;43.164;27.786;2023-04-01T21:48:46;99176.38;;;13.13;79.39
63088;BME280;49173;43.164;27.786;2023-04-01T21:54:15;99189.97;;;13.12;79.45
63088;BME280;49173;43.164;27.786;2023-04-01T22:03:03;99200.41;;;13.05;79.71
63088;BME280;49173;43.164;27.786;2023-04-01T22:06:11;99190.16;;;12.99;79.70
63088;BME280;49173;43.164;27.786;2023-04-01T22:14:29;99211.84;;;12.86;80.68
63088;BME280;49173;43.164;27.786;2023-04-01T22:16:58;99217.50;;;12.83;80.78
63088;BME280;49173;43.164;27.786;2023-04-01T22:19:59;99228.78;;;12.77;81.14
63088;BME280;49173;43.164;27.786;2023-04-01T22:22:49;99227.31;;;12.73;81.32
63088;BME280;49173;43.164;27.786;2023-04-01T22:28:32;99228.66;;;12.68;81.62
63088;BME280;49173;43.164;27.786;2023-04-01T22:31:02;99234.03;;;12.68;81.88
63088;BME280;49173;43.164;27.786;2023-04-01T22:33:32;99240.53;;;12.65;81.80
63088;BME280;49173;43.164;27.786;2023-04-01T22:41:42;99252.78;;;12.69;81.78
63088;BME280;49173;43.164;27.786;2023-04-01T22:44:26;99248.75;;;12.63;81.78
63088;BME280;49173;43.164;27.786;2023-04-01T22:49:39;99255.00;;;12.64;80.77
63088;BME280;49173;43.164;27.786;2023-04-01T22:52:35;99266.75;;;12.63;80.74
63088;BME280;49173;43.164;27.786;2023-04-01T22:55:17;99275.53;;;12.65;79.87
63088;BME280;49173;43.164;27.786;2023-04-01T22:58:14;99274.06;;;12.61;79.91
63088;BME280;49173;43.164;27.786;2023-04-01T23:00:49;99268.81;;;12.59;79.73
63088;BME280;49173;43.164;27.786;2023-04-01T23:03:35;99273.34;;;12.59;79.37
63088;BME280;49173;43.164;27.786;2023-04-01T23:06:05;99270.50;;;12.60;78.62
63088;BME280;49173;43.164;27.786;2023-04-01T23:11:44;99264.19;;;12.61;78.16
63088;BME280;49173;43.164;27.786;2023-04-01T23:17:03;99259.88;;;12.59;77.35
63088;BME280;49173;43.164;27.786;2023-04-01T23:19:51;99265.75;;;12.53;76.34
63088;BME280;49173;43.164;27.786;2023-04-01T23:22:42;99262.94;;;12.54;75.46
63088;BME280;49173;43.164;27.786;2023-04-01T23:35:52;99267.59;;;12.30;72.07
63088;BME280;49173;43.164;27.786;2023-04-01T23:38:21;99265.28;;;12.25;71.56